createdAt,value
2022-08-26T00:01:57.789Z,101578.44
2022-08-26T00:04:26.655Z,101576.47
2022-08-26T00:06:55.897Z,101564.34
2022-08-26T00:09:25.474Z,101572.22
2022-08-26T00:11:54.233Z,101569.59
2022-08-26T00:14:24.163Z,101576.78
2022-08-26T00:16:55.997Z,101567.97
2022-08-26T00:19:23.996Z,101574.25
2022-08-26T00:21:51.632Z,101558.78
2022-08-26T00:24:21.064Z,101562.94
2022-08-26T00:26:50.022Z,101575.22
2022-08-26T00:29:19.329Z,101587.63
2022-08-26T00:31:48.803Z,101585.69
2022-08-26T00:34:19.611Z,101582.00
2022-08-26T00:36:47.746Z,101577.97
2022-08-26T00:39:19.937Z,101583.09
2022-08-26T00:41:48.289Z,101585.78
2022-08-26T00:44:16.076Z,101586.66
2022-08-26T00:46:47.288Z,101582.22
2022-08-26T00:49:20.771Z,101582.31
2022-08-26T00:51:52.597Z,101577.03
2022-08-26T00:54:23.844Z,101577.03
2022-08-26T00:57:16.317Z,101567.44
2022-08-26T00:59:47.775Z,101569.34
2022-08-26T01:02:21.304Z,101570.38
2022-08-26T01:04:54.410Z,101579.09
2022-08-26T01:07:25.659Z,101581.59
2022-08-26T01:09:53.199Z,101573.59
2022-08-26T01:12:22.713Z,101573.03
2022-08-26T01:14:50.743Z,101570.16
2022-08-26T01:17:18.569Z,101572.78
2022-08-26T01:19:51.738Z,101573.03
2022-08-26T01:22:32.189Z,101568.66
2022-08-26T01:25:04.225Z,101574.84
2022-08-26T01:27:32.965Z,101574.81
2022-08-26T01:30:03.170Z,101574.97
2022-08-26T01:32:33.799Z,101572.41
2022-08-26T01:35:02.081Z,101571.56
2022-08-26T01:37:36.500Z,101570.94
2022-08-26T01:40:10.624Z,101582.25
2022-08-26T01:42:38.189Z,101575.19
2022-08-26T01:45:15.901Z,101582.31
2022-08-26T01:47:44.188Z,101580.47
2022-08-26T01:50:27.641Z,101570.94
2022-08-26T01:53:00.427Z,101578.81
2022-08-26T01:55:33.160Z,101579.53
2022-08-26T01:58:06.359Z,101553.66
2022-08-26T02:00:36.332Z,101577.72
2022-08-26T02:03:19.024Z,101582.19
2022-08-26T02:05:53.440Z,101583.13
2022-08-26T02:08:33.030Z,101582.47
2022-08-26T02:11:00.525Z,101571.13
2022-08-26T02:13:31.718Z,101571.25
2022-08-26T02:16:01.750Z,101555.69
2022-08-26T02:18:33.665Z,101589.56
2022-08-26T02:21:01.798Z,101585.16
2022-08-26T02:23:29.532Z,101584.69
2022-08-26T02:26:27.193Z,101587.72
2022-08-26T02:29:01.326Z,101580.09
2022-08-26T02:31:28.882Z,101587.28
2022-08-26T02:33:56.362Z,101591.22
2022-08-26T02:36:28.674Z,101594.78
2022-08-26T02:38:56.385Z,101595.94
2022-08-26T02:41:24.227Z,101582.88
2022-08-26T02:43:52.217Z,101588.94
2022-08-26T02:46:28.005Z,101589.03
2022-08-26T02:48:58.190Z,101589.03
2022-08-26T02:51:26.041Z,101590.00
2022-08-26T02:53:53.701Z,101601.31
2022-08-26T02:56:21.274Z,101600.34
2022-08-26T02:58:49.128Z,101594.31
2022-08-26T03:01:25.766Z,101601.44
2022-08-26T03:03:54.321Z,101590.88
2022-08-26T03:06:22.076Z,101600.34
2022-08-26T03:08:50.655Z,101592.38
2022-08-26T03:11:19.857Z,101599.59
2022-08-26T03:13:47.415Z,101590.75
2022-08-26T03:16:15.362Z,101600.19
2022-08-26T03:18:43.496Z,101593.22
2022-08-26T03:21:20.905Z,101593.13
2022-08-26T03:23:49.672Z,101584.41
2022-08-26T03:26:17.594Z,101574.81
2022-08-26T03:28:59.080Z,101590.34
2022-08-26T03:31:26.787Z,101594.84
2022-08-26T03:33:57.645Z,101588.63
2022-08-26T03:36:27.656Z,101591.19
2022-08-26T03:38:55.169Z,101591.13
2022-08-26T03:41:23.433Z,101592.88
2022-08-26T03:43:50.973Z,101590.47
2022-08-26T03:46:20.499Z,101587.84
2022-08-26T03:48:48.802Z,101581.81
2022-08-26T03:51:20.312Z,101582.78
2022-08-26T03:53:48.708Z,101580.94
2022-08-26T03:56:16.250Z,101585.28
2022-08-26T03:58:44.914Z,101581.78
2022-08-26T04:01:16.172Z,101580.09
2022-08-26T04:04:00.240Z,101583.72
2022-08-26T04:06:43.276Z,101580.19
2022-08-26T04:09:18.757Z,101579.13
2022-08-26T04:11:50.620Z,101554.25
2022-08-26T04:14:21.043Z,101560.16
2022-08-26T04:16:49.225Z,101570.91
2022-08-26T04:19:17.785Z,101566.41
2022-08-26T04:21:46.586Z,101564.16
2022-08-26T04:24:17.656Z,101573.69
2022-08-26T04:26:45.405Z,101577.81
2022-08-26T04:29:19.102Z,101576.16
2022-08-26T04:31:48.041Z,101568.09
2022-08-26T04:34:16.181Z,101576.34
2022-08-26T04:36:44.632Z,101578.78
2022-08-26T04:39:16.568Z,101571.66
2022-08-26T04:41:46.209Z,101579.44
2022-08-26T04:44:14.417Z,101586.44
2022-08-26T04:46:43.921Z,101580.97
2022-08-26T04:49:12.187Z,101587.22
2022-08-26T04:51:40.947Z,101583.84
2022-08-26T04:54:08.650Z,101595.13
2022-08-26T04:56:42.505Z,101594.22
2022-08-26T04:59:16.540Z,101595.06
2022-08-26T05:01:52.419Z,101587.41
2022-08-26T05:04:22.013Z,101595.00
2022-08-26T05:06:50.498Z,101595.94
2022-08-26T05:09:20.072Z,101604.78
2022-08-26T05:11:48.514Z,101607.38
2022-08-26T05:14:19.743Z,101610.16
2022-08-26T05:16:47.796Z,101606.78
2022-08-26T05:19:19.028Z,101605.03
2022-08-26T05:21:47.753Z,101595.66
2022-08-26T05:24:15.486Z,101607.91
2022-08-26T05:26:44.629Z,101602.78
2022-08-26T05:29:12.551Z,101600.16
2022-08-26T05:31:40.153Z,101614.19
2022-08-26T05:34:08.435Z,101605.56
2022-08-26T05:36:37.249Z,101613.44
2022-08-26T05:39:07.566Z,101608.91
2022-08-26T05:41:41.054Z,101619.47
2022-08-26T05:44:12.673Z,101621.16
2022-08-26T05:46:44.687Z,101608.69
2022-08-26T05:49:14.034Z,101622.59
2022-08-26T05:51:47.478Z,101622.31
2022-08-26T05:54:21.931Z,101629.28
2022-08-26T05:56:50.082Z,101630.94
2022-08-26T05:59:21.376Z,101627.59
2022-08-26T06:01:52.863Z,101627.41
2022-08-26T06:04:20.643Z,101630.75
2022-08-26T06:06:48.533Z,101634.31
2022-08-26T06:09:17.456Z,101637.63
2022-08-26T06:11:46.117Z,101635.63
2022-08-26T06:14:13.627Z,101625.41
2022-08-26T06:16:43.781Z,101633.81
2022-08-26T06:19:15.404Z,101635.13
2022-08-26T06:21:46.257Z,101637.72
2022-08-26T06:24:32.557Z,101627.72
2022-08-26T06:27:04.653Z,101631.38
2022-08-26T06:29:36.248Z,101628.13
2022-08-26T06:32:05.757Z,101627.00
2022-08-26T06:34:33.744Z,101634.78
2022-08-26T06:37:03.403Z,101632.97
2022-08-26T06:39:32.008Z,101638.97
2022-08-26T06:42:03.033Z,101648.34
2022-08-26T06:44:31.077Z,101648.09
2022-08-26T06:47:00.243Z,101645.53
2022-08-26T06:49:28.314Z,101644.75
2022-08-26T06:51:58.826Z,101657.63
2022-08-26T06:54:28.447Z,101657.63
2022-08-26T06:56:56.872Z,101646.06
2022-08-26T06:59:25.048Z,101660.97
2022-08-26T07:01:53.484Z,101670.56
2022-08-26T07:04:23.069Z,101663.13
2022-08-26T07:06:52.504Z,101670.56
2022-08-26T07:09:22.781Z,101665.59
2022-08-26T07:11:51.281Z,101672.47
2022-08-26T07:14:21.180Z,101673.38
2022-08-26T07:16:50.472Z,101677.59
2022-08-26T07:19:31.171Z,101664.72
2022-08-26T07:22:04.318Z,101667.22
2022-08-26T07:24:35.109Z,101670.44
2022-08-26T07:27:05.812Z,101675.75
2022-08-26T07:29:33.892Z,101667.22
2022-08-26T07:32:01.661Z,101684.59
2022-08-26T07:34:29.397Z,101679.22
2022-08-26T07:36:58.852Z,101685.34
2022-08-26T07:39:27.198Z,101691.50
2022-08-26T07:41:54.827Z,101675.16
2022-08-26T07:44:22.577Z,101693.53
2022-08-26T07:46:53.366Z,101696.19
2022-08-26T07:49:25.146Z,101689.88
2022-08-26T07:51:53.057Z,101701.38
2022-08-26T07:54:27.004Z,101702.06
2022-08-26T07:56:56.025Z,101705.72
2022-08-26T07:59:24.090Z,101710.69
2022-08-26T08:01:51.858Z,101710.53
2022-08-26T08:04:26.218Z,101705.09
2022-08-26T08:06:54.384Z,101701.69
2022-08-26T08:09:22.494Z,101701.19
2022-08-26T08:11:51.284Z,101692.25
2022-08-26T08:14:20.478Z,101693.22
2022-08-26T08:16:53.596Z,101693.00
2022-08-26T08:19:23.050Z,101697.97
2022-08-26T08:21:51.607Z,101702.72
2022-08-26T08:24:19.822Z,101702.25
2022-08-26T08:26:48.117Z,101705.72
2022-08-26T08:29:15.734Z,101711.69
2022-08-26T08:31:56.777Z,101712.41
2022-08-26T08:34:28.225Z,101693.06
2022-08-26T08:36:57.117Z,101720.09
2022-08-26T08:39:25.984Z,101715.81
2022-08-26T08:42:23.535Z,101715.25
2022-08-26T08:44:54.241Z,101721.00
2022-08-26T08:47:37.944Z,101719.97
2022-08-26T08:50:29.481Z,101720.09
2022-08-26T08:53:11.396Z,101717.91
2022-08-26T08:56:00.579Z,101709.97
2022-08-26T08:59:04.641Z,101704.69
2022-08-26T09:02:11.599Z,101712.50
2022-08-26T09:05:20.101Z,101718.56
2022-08-26T09:07:57.211Z,101714.03
2022-08-26T09:10:50.413Z,101715.31
2022-08-26T09:13:26.169Z,101711.94
2022-08-26T09:16:04.199Z,101704.59
2022-08-26T09:18:59.089Z,101714.91
2022-08-26T09:21:27.859Z,101724.03
2022-08-26T09:23:56.998Z,101720.13
2022-08-26T09:26:42.693Z,101727.09
2022-08-26T09:31:53.486Z,101727.78
2022-08-26T09:34:23.730Z,101722.28
2022-08-26T09:36:57.308Z,101729.78
2022-08-26T09:39:24.720Z,101729.06
2022-08-26T09:42:25.404Z,101726.41
2022-08-26T09:44:59.409Z,101724.81
2022-08-26T09:47:31.984Z,101728.69
2022-08-26T09:50:38.407Z,101731.28
2022-08-26T09:53:09.921Z,101731.09
2022-08-26T09:55:42.510Z,101729.16
2022-08-26T09:58:32.608Z,101731.31
2022-08-26T10:01:03.060Z,101733.91
2022-08-26T10:03:38.274Z,101719.09
2022-08-26T10:06:28.758Z,101729.69
2022-08-26T10:08:59.986Z,101720.19
2022-08-26T10:11:30.567Z,101728.31
2022-08-26T10:14:04.270Z,101720.19
2022-08-26T10:16:40.777Z,101724.56
2022-08-26T10:19:14.342Z,101733.78
2022-08-26T10:22:05.306Z,101734.34
2022-08-26T10:24:41.820Z,101728.34
2022-08-26T10:27:26.377Z,101736.44
2022-08-26T10:30:01.327Z,101733.38
2022-08-26T10:32:35.198Z,101716.25
2022-08-26T10:35:07.653Z,101724.91
2022-08-26T10:37:42.625Z,101723.25
2022-08-26T10:40:19.274Z,101718.06
2022-08-26T10:42:56.962Z,101721.00
2022-08-26T10:45:29.606Z,101722.44
2022-08-26T10:48:05.880Z,101722.94
2022-08-26T10:50:38.048Z,101727.84
2022-08-26T10:53:25.424Z,101720.72
2022-08-26T10:56:23.606Z,101730.41
2022-08-26T10:59:12.196Z,101724.22
2022-08-26T11:01:58.947Z,101730.28
2022-08-26T11:04:47.515Z,101728.94
2022-08-26T11:07:41.318Z,101722.63
2022-08-26T11:10:43.627Z,101727.47
2022-08-26T11:13:12.103Z,101728.44
2022-08-26T11:15:39.548Z,101728.69
2022-08-26T11:18:09.919Z,101731.63
2022-08-26T11:20:42.331Z,101732.41
2022-08-26T11:23:22.263Z,101733.44
2022-08-26T11:26:11.563Z,101734.03
2022-08-26T11:28:49.659Z,101731.31
2022-08-26T11:31:19.939Z,101731.78
2022-08-26T11:33:59.860Z,101723.16
2022-08-26T11:36:49.110Z,101735.81
2022-08-26T11:39:20.021Z,101741.78
2022-08-26T11:41:52.622Z,101728.22
2022-08-26T11:44:24.428Z,101727.31
2022-08-26T11:46:56.986Z,101738.84
2022-08-26T11:49:25.772Z,101725.34
2022-08-26T11:51:53.582Z,101729.41
2022-08-26T11:54:35.243Z,101730.91
2022-08-26T11:57:09.507Z,101727.19
2022-08-26T11:59:42.335Z,101723.81
2022-08-26T12:02:17.915Z,101733.31
2022-08-26T12:04:49.364Z,101722.38
2022-08-26T12:07:18.490Z,101708.34
2022-08-26T12:10:00.618Z,101724.78
2022-08-26T12:12:35.206Z,101719.63
2022-08-26T12:15:12.893Z,101719.06
2022-08-26T12:17:41.861Z,101724.94
2022-08-26T12:20:48.158Z,101725.81
2022-08-26T12:23:25.986Z,101728.44
2022-08-26T12:26:04.132Z,101727.94
2022-08-26T12:28:32.327Z,101730.19
2022-08-26T12:31:06.458Z,101737.22
2022-08-26T12:33:36.607Z,101733.88
2022-08-26T12:36:05.890Z,101728.66
2022-08-26T12:38:36.789Z,101742.47
2022-08-26T12:41:04.637Z,101738.66
2022-08-26T12:43:44.399Z,101743.19
2022-08-26T12:46:25.592Z,101748.38
2022-08-26T12:48:53.206Z,101739.09
2022-08-26T12:51:29.738Z,101749.56
2022-08-26T12:53:58.298Z,101744.16
2022-08-26T12:56:38.555Z,101752.34
2022-08-26T12:59:26.593Z,101748.00
2022-08-26T13:01:55.627Z,101748.84
2022-08-26T13:04:35.205Z,101751.72
2022-08-26T13:07:24.206Z,101745.66
2022-08-26T13:09:55.106Z,101738.44
2022-08-26T13:12:37.077Z,101738.41
2022-08-26T13:15:06.080Z,101730.94
2022-08-26T13:17:35.849Z,101737.25
2022-08-26T13:20:04.449Z,101737.16
2022-08-26T13:22:32.515Z,101734.63
2022-08-26T13:25:00.314Z,101738.63
2022-08-26T13:27:29.067Z,101739.59
2022-08-26T13:29:57.839Z,101727.56
2022-08-26T13:32:27.747Z,101728.13
2022-08-26T13:34:57.273Z,101728.78
2022-08-26T13:37:35.114Z,101718.63
2022-08-26T13:40:07.546Z,101721.88
2022-08-26T13:42:35.073Z,101732.59
2022-08-26T13:45:03.347Z,101710.06
2022-08-26T13:47:30.842Z,101721.94
2022-08-26T13:49:58.468Z,101707.59
2022-08-26T13:52:30.217Z,101722.25
2022-08-26T13:55:00.601Z,101720.53
2022-08-26T13:57:30.493Z,101721.22
2022-08-26T13:59:59.254Z,101728.19
2022-08-26T14:02:28.275Z,101728.50
2022-08-26T14:04:56.385Z,101737.53
2022-08-26T14:07:24.322Z,101738.06
2022-08-26T14:09:52.020Z,101736.31
2022-08-26T14:12:19.521Z,101742.00
2022-08-26T14:14:47.640Z,101735.28
2022-08-26T14:17:22.225Z,101730.41
2022-08-26T14:19:51.252Z,101728.91
2022-08-26T14:22:21.759Z,101731.09
2022-08-26T14:24:50.261Z,101728.19
2022-08-26T14:27:17.846Z,101721.72
2022-08-26T14:29:45.327Z,101723.50
2022-08-26T14:32:25.294Z,101728.31
2022-08-26T14:34:53.743Z,101714.63
2022-08-26T14:37:22.170Z,101727.31
2022-08-26T14:39:49.868Z,101728.28
2022-08-26T14:42:22.378Z,101722.38
2022-08-26T14:44:57.660Z,101722.59
2022-08-26T14:47:25.674Z,101717.47
2022-08-26T14:49:53.198Z,101708.16
2022-08-26T14:52:21.403Z,101710.31
2022-08-26T14:54:47.989Z,101722.75
2022-08-26T14:57:22.521Z,101724.44
2022-08-26T14:59:50.520Z,101716.16
2022-08-26T15:02:32.820Z,101717.47
2022-08-26T15:05:01.364Z,101683.34
2022-08-26T15:07:28.971Z,101709.81
2022-08-26T15:09:56.491Z,101711.78
2022-08-26T15:12:24.216Z,101705.00
2022-08-26T15:14:51.760Z,101697.75
2022-08-26T15:17:19.240Z,101702.91
2022-08-26T15:19:47.410Z,101708.03
2022-08-26T15:22:14.909Z,101702.84
2022-08-26T15:24:42.455Z,101703.84
2022-08-26T15:27:09.917Z,101706.00
2022-08-26T15:29:37.499Z,101705.94
2022-08-26T15:32:05.827Z,101702.13
2022-08-26T15:34:33.411Z,101696.41
2022-08-26T15:37:02.067Z,101697.00
2022-08-26T15:39:29.626Z,101695.78
2022-08-26T15:41:57.282Z,101701.09
2022-08-26T15:44:27.218Z,101687.94
2022-08-26T15:46:58.685Z,101696.19
2022-08-26T15:49:27.373Z,101697.25
2022-08-26T15:51:54.958Z,101696.78
2022-08-26T15:54:24.125Z,101702.06
2022-08-26T15:56:52.366Z,101688.25
2022-08-26T15:59:21.675Z,101695.22
2022-08-26T16:01:49.290Z,101685.38
2022-08-26T16:04:17.582Z,101682.84
2022-08-26T16:06:50.135Z,101685.28
2022-08-26T16:09:18.431Z,101688.00
2022-08-26T16:11:46.005Z,101691.09
2022-08-26T16:14:13.551Z,101686.28
2022-08-26T16:16:41.554Z,101679.25
2022-08-26T16:19:09.574Z,101681.81
2022-08-26T16:21:37.264Z,101671.25
2022-08-26T16:24:06.292Z,101675.31
2022-08-26T16:26:37.431Z,101683.31
2022-08-26T16:29:09.617Z,101675.72
2022-08-26T16:31:38.322Z,101679.13
2022-08-26T16:34:06.944Z,101677.19
2022-08-26T16:36:35.473Z,101681.78
2022-08-26T16:39:04.169Z,101675.22
2022-08-26T16:41:32.829Z,101675.66
2022-08-26T16:44:00.365Z,101667.72
2022-08-26T16:46:29.225Z,101679.16
2022-08-26T16:48:58.314Z,101678.16
2022-08-26T16:51:28.458Z,101693.94
2022-08-26T16:53:57.678Z,101689.13
2022-08-26T16:56:30.640Z,101692.03
2022-08-26T16:59:01.938Z,101690.31
2022-08-26T17:01:29.575Z,101695.75
2022-08-26T17:03:57.131Z,101695.75
2022-08-26T17:06:24.748Z,101697.75
2022-08-26T17:08:53.065Z,101692.91
2022-08-26T17:11:20.681Z,101703.56
2022-08-26T17:13:48.165Z,101699.03
2022-08-26T17:16:16.047Z,101693.13
2022-08-26T17:18:43.631Z,101694.41
2022-08-26T17:21:13.383Z,101690.97
2022-08-26T17:23:42.645Z,101699.25
2022-08-26T17:26:11.997Z,101697.75
2022-08-26T17:28:40.235Z,101707.84
2022-08-26T17:31:09.210Z,101697.53
2022-08-26T17:33:37.118Z,101705.19
2022-08-26T17:36:07.662Z,101703.69
2022-08-26T17:38:37.681Z,101704.59
2022-08-26T17:41:12.499Z,101718.84
2022-08-26T17:43:41.572Z,101707.25
2022-08-26T17:46:11.472Z,101712.84
2022-08-26T17:48:40.453Z,101715.81
2022-08-26T17:51:13.369Z,101718.84
2022-08-26T17:53:42.453Z,101716.34
2022-08-26T17:56:13.059Z,101716.22
2022-08-26T17:58:41.414Z,101710.00
2022-08-26T18:01:18.905Z,101724.13
2022-08-26T18:03:46.651Z,101722.41
2022-08-26T18:06:15.191Z,101726.88
2022-08-26T18:08:43.952Z,101726.22
2022-08-26T18:11:17.452Z,101732.75
2022-08-26T18:13:47.333Z,101731.91
2022-08-26T18:16:16.180Z,101733.44
2022-08-26T18:18:43.830Z,101732.84
2022-08-26T18:21:19.565Z,101733.00
2022-08-26T18:23:48.542Z,101732.88
2022-08-26T18:26:21.845Z,101736.44
2022-08-26T18:28:49.691Z,101734.94
2022-08-26T18:31:17.235Z,101732.41
2022-08-26T18:33:45.714Z,101737.88
2022-08-26T18:36:21.618Z,101731.72
2022-08-26T18:38:50.700Z,101736.03
2022-08-26T18:41:20.606Z,101741.69
2022-08-26T18:43:50.355Z,101749.53
2022-08-26T18:46:19.369Z,101755.81
2022-08-26T18:48:49.101Z,101749.63
2022-08-26T18:51:21.728Z,101746.06
2022-08-26T18:53:49.373Z,101753.34
2022-08-26T18:56:18.648Z,101749.81
2022-08-26T18:58:46.399Z,101756.28
2022-08-26T19:01:14.956Z,101758.28
2022-08-26T19:03:43.018Z,101752.47
2022-08-26T19:06:15.184Z,101762.91
2022-08-26T19:08:44.597Z,101760.50
2022-08-26T19:11:13.978Z,101769.09
2022-08-26T19:13:42.916Z,101774.53
2022-08-26T19:16:22.465Z,101778.09
2022-08-26T19:18:52.443Z,101774.56
2022-08-26T19:21:21.802Z,101778.28
2022-08-26T19:23:50.063Z,101787.19
2022-08-26T19:26:18.487Z,101783.91
2022-08-26T19:28:46.043Z,101771.94
2022-08-26T19:31:13.818Z,101794.69
2022-08-26T19:33:43.010Z,101778.88
2022-08-26T19:36:15.588Z,101723.53
2022-08-26T19:38:43.237Z,101787.72
2022-08-26T19:41:19.908Z,101782.69
2022-08-26T19:43:47.916Z,101794.19
2022-08-26T19:46:18.280Z,101791.78
2022-08-26T19:48:46.684Z,101795.41
2022-08-26T19:51:20.064Z,101790.34
2022-08-26T19:53:49.525Z,101797.53
2022-08-26T19:56:17.579Z,101804.69
2022-08-26T19:58:45.491Z,101796.91
2022-08-26T20:01:14.927Z,101797.09
2022-08-26T20:03:43.483Z,101801.69
2022-08-26T20:06:12.998Z,101794.75
2022-08-26T20:08:42.525Z,101793.22
2022-08-26T20:11:15.154Z,101800.28
2022-08-26T20:13:43.846Z,101790.13
2022-08-26T20:16:12.239Z,101804.19
2022-08-26T20:18:59.340Z,101800.84
2022-08-26T20:21:27.349Z,101793.94
2022-08-26T20:24:00.574Z,101795.72
2022-08-26T20:26:29.723Z,101792.25
2022-08-26T20:28:58.518Z,101797.78
2022-08-26T20:31:27.567Z,101805.66
2022-08-26T20:33:55.364Z,101804.81
2022-08-26T20:36:26.894Z,101756.31
2022-08-26T20:38:55.364Z,101796.22
2022-08-26T20:41:25.309Z,101784.06
2022-08-26T20:43:54.182Z,101794.63
2022-08-26T20:46:24.673Z,101784.19
2022-08-26T20:48:53.375Z,101788.63
2022-08-26T20:51:22.902Z,101780.94
2022-08-26T20:53:51.334Z,101790.47
2022-08-26T20:56:23.750Z,101793.19
2022-08-26T20:58:54.238Z,101797.59
2022-08-26T21:01:25.378Z,101784.53
2022-08-26T21:03:54.511Z,101795.94
2022-08-26T21:06:22.484Z,101803.00
2022-08-26T21:08:50.823Z,101794.31
2022-08-26T21:11:19.047Z,101792.59
2022-08-26T21:14:04.371Z,101790.91
2022-08-26T21:16:36.624Z,101790.16
2022-08-26T21:19:10.613Z,101771.88
2022-08-26T21:21:38.822Z,101788.41
2022-08-26T21:24:06.955Z,101792.91
2022-08-26T21:26:34.549Z,101799.06
2022-08-26T21:29:03.111Z,101797.34
2022-08-26T21:31:31.958Z,101796.50
2022-08-26T21:34:00.294Z,101791.28
2022-08-26T21:36:28.336Z,101794.00
2022-08-26T21:38:57.971Z,101797.50
2022-08-26T21:41:26.623Z,101796.72
2022-08-26T21:43:58.909Z,101790.66
2022-08-26T21:46:29.203Z,101801.09
2022-08-26T21:48:58.975Z,101797.59
2022-08-26T21:51:29.889Z,101801.97
2022-08-26T21:53:59.062Z,101794.97
2022-08-26T21:56:28.726Z,101801.16
2022-08-26T21:58:57.512Z,101804.59
2022-08-26T22:01:27.432Z,101797.69
2022-08-26T22:03:55.298Z,101813.34
2022-08-26T22:06:25.577Z,101802.84
2022-08-26T22:08:54.149Z,101813.28
2022-08-26T22:11:21.858Z,101812.38
2022-08-26T22:13:50.281Z,101812.31
2022-08-26T22:16:19.076Z,101807.94
2022-08-26T22:18:47.073Z,101822.78
2022-08-26T22:21:18.711Z,101817.59
2022-08-26T22:23:46.946Z,101825.47
2022-08-26T22:26:25.565Z,101819.41
2022-08-26T22:28:58.417Z,101813.41
2022-08-26T22:31:37.692Z,101822.09
2022-08-26T22:34:11.495Z,101813.38
2022-08-26T22:36:43.936Z,101809.91
2022-08-26T22:39:13.745Z,101810.78
2022-08-26T22:41:43.185Z,101809.88
2022-08-26T22:44:11.643Z,101804.59
2022-08-26T22:46:39.775Z,101803.75
2022-08-26T22:49:10.124Z,101801.09
2022-08-26T22:51:37.743Z,101803.75
2022-08-26T22:54:06.209Z,101809.03
2022-08-26T22:56:33.755Z,101805.47
2022-08-26T22:59:01.252Z,101801.94
2022-08-26T23:01:29.042Z,101804.53
2022-08-26T23:03:56.569Z,101800.94
2022-08-26T23:06:24.146Z,101800.91
2022-08-26T23:08:53.029Z,101800.00
2022-08-26T23:11:20.477Z,101799.84
2022-08-26T23:13:48.048Z,101799.84
2022-08-26T23:16:15.571Z,101802.34
2022-08-26T23:18:44.201Z,101791.91
2022-08-26T23:21:11.871Z,101787.44
2022-08-26T23:23:39.381Z,101796.97
2022-08-26T23:26:08.175Z,101793.38
2022-08-26T23:28:37.718Z,101787.31
2022-08-26T23:31:06.288Z,101792.41
2022-08-26T23:33:47.703Z,101781.88
2022-08-26T23:36:17.971Z,101784.44
2022-08-26T23:38:52.932Z,101776.56
2022-08-26T23:41:24.398Z,101783.53
2022-08-26T23:43:52.686Z,101778.25
2022-08-26T23:46:21.043Z,101777.34
2022-08-26T23:48:49.006Z,101767.84
2022-08-26T23:51:34.506Z,101778.31
2022-08-26T23:54:01.979Z,101779.97
2022-08-26T23:56:29.710Z,101780.03
2022-08-26T23:58:57.387Z,101772.25
